Time;durP1;ratioP1;P1;durP2;ratioP2;P2;SDS_P1;SDS_P2;PMS_P1;PMS_P2;Temp;Humidity;BMP_temperature;BMP_pressure;BME280_temperature;BME280_humidity;BME280_pressure;Samples;Min_cycle;Max_cycle;Signal;HPM_P1;HPM_P2
2023/09/27 00:00:13;;;;;;;5.07;3.20;;;;;;;;;;465190;28;938;-75
2023/09/27 00:00:28;;;;;;;5.45;3.25;;;;;;;;;;465570;28;1434;-75
2023/09/27 00:00:44;;;;;;;5.57;3.20;;;;;;;;;;466517;28;1180;-75
2023/09/27 00:00:59;;;;;;;4.00;3.03;;;;;;;;;;463928;28;1280;-75
2023/09/27 00:01:14;;;;;;;3.80;3.22;;;;;;;;;;464979;28;1067;-75
2023/09/27 00:01:30;;;;;;;3.50;3.20;;;;;;;;;;464863;28;863;-75
2023/09/27 00:01:45;;;;;;;3.20;2.90;;;;;;;;;;465174;28;922;-75
2023/09/27 00:02:00;;;;;;;4.40;3.00;;;;;;;;;;470329;28;1169;-75
2023/09/27 00:02:16;;;;;;;4.37;3.00;;;;;;;;;;470038;28;1159;-75
2023/09/27 00:02:31;;;;;;;3.30;3.00;;;;;;;;;;481396;28;1319;-75
2023/09/27 00:02:47;;;;;;;3.65;3.05;;;;;;;;;;478054;28;1446;-75
2023/09/27 00:03:03;;;;;;;3.77;3.10;;;;;;;;;;470223;28;1410;-75
2023/09/27 00:03:20;;;;;;;4.82;3.13;;;;;;;;;;469799;28;1140;-75
2023/09/27 00:03:35;;;;;;;4.65;3.10;;;;;;;;;;482642;28;1143;-75
2023/09/27 00:03:51;;;;;;;3.67;3.05;;;;;;;;;;474115;28;1056;-75
2023/09/27 00:04:06;;;;;;;3.77;3.10;;;;;;;;;;468027;28;859;-75
2023/09/27 00:04:21;;;;;;;3.70;3.10;;;;;;;;;;466164;28;1248;-75
2023/09/27 00:04:37;;;;;;;4.17;3.13;;;;;;;;;;463140;28;1187;-75
2023/09/27 00:04:52;;;;;;;4.30;3.20;;;;;;;;;;464590;28;1251;-75
2023/09/27 00:05:08;;;;;;;3.78;3.10;;;;;;;;;;467746;28;1225;-75
2023/09/27 00:05:25;;;;;;;3.83;3.00;;;;;;;;;;467699;28;1214;-75
2023/09/27 00:05:40;;;;;;;4.50;3.00;;;;;;;;;;465607;28;1302;-75
2023/09/27 00:05:55;;;;;;;4.40;3.10;;;;;;;;;;465826;28;1393;-75
2023/09/27 00:06:11;;;;;;;4.27;3.23;;;;;;;;;;465932;28;1143;-75
2023/09/27 00:06:27;;;;;;;4.10;3.38;;;;;;;;;;466895;28;1135;-75
2023/09/27 00:06:42;;;;;;;3.80;3.17;;;;;;;;;;466382;28;1167;-75
2023/09/27 00:06:57;;;;;;;3.25;2.95;;;;;;;;;;467108;28;1120;-75
2023/09/27 00:07:13;;;;;;;3.33;3.03;;;;;;;;;;469202;28;1406;-75
2023/09/27 00:07:28;;;;;;;3.37;3.07;;;;;;;;;;470004;28;1202;-75
2023/09/27 00:07:44;;;;;;;3.58;3.10;;;;;;;;;;468160;28;1119;-75
2023/09/27 00:07:59;;;;;;;3.57;3.00;;;;;;;;;;468184;28;1173;-75
2023/09/27 00:08:14;;;;;;;4.30;3.13;;;;;;;;;;472128;28;1157;-76
2023/09/27 00:08:30;;;;;;;5.97;3.20;;;;;;;;;;469107;28;1292;-75
2023/09/27 00:08:45;;;;;;;5.27;3.10;;;;;;;;;;468194;28;938;-75
2023/09/27 00:09:00;;;;;;;3.53;3.20;;;;;;;;;;470069;28;910;-75
2023/09/27 00:09:16;;;;;;;3.43;3.13;;;;;;;;;;470689;28;1117;-75
2023/09/27 00:09:31;;;;;;;3.40;3.10;;;;;;;;;;466137;28;1187;-75
2023/09/27 00:09:47;;;;;;;4.30;3.20;;;;;;;;;;466757;28;922;-75
2023/09/27 00:10:05;;;;;;;5.30;3.30;;;;;;;;;;466892;28;1090;-75
2023/09/27 00:10:21;;;;;;;5.05;3.38;;;;;;;;;;469362;28;1055;-75
2023/09/27 00:10:36;;;;;;;4.03;3.20;;;;;;;;;;467638;28;1314;-75
2023/09/27 00:10:51;;;;;;;4.30;3.10;;;;;;;;;;465466;28;1248;-75
2023/09/27 00:11:07;;;;;;;4.25;3.33;;;;;;;;;;464855;28;1275;-75
2023/09/27 00:11:22;;;;;;;4.13;3.30;;;;;;;;;;466827;28;1122;-75
2023/09/27 00:11:38;;;;;;;4.68;3.20;;;;;;;;;;465652;28;1165;-75
2023/09/27 00:11:53;;;;;;;4.77;3.20;;;;;;;;;;464208;28;1073;-75
2023/09/27 00:12:09;;;;;;;4.97;3.33;;;;;;;;;;463664;28;1048;-75
2023/09/27 00:12:24;;;;;;;4.85;3.25;;;;;;;;;;465984;28;1105;-75
2023/09/27 00:12:40;;;;;;;4.53;3.10;;;;;;;;;;463757;28;1390;-75
2023/09/27 00:12:55;;;;;;;4.53;3.30;;;;;;;;;;465526;28;931;-75
2023/09/27 00:13:10;;;;;;;5.25;3.30;;;;;;;;;;471455;28;1392;-75
2023/09/27 00:13:26;;;;;;;5.47;3.30;;;;;;;;;;477876;28;1349;-75
2023/09/27 00:13:42;;;;;;;4.57;3.30;;;;;;;;;;487769;28;1401;-70
2023/09/27 00:13:57;;;;;;;3.50;3.20;;;;;;;;;;472202;28;1223;-70
2023/09/27 00:14:14;;;;;;;3.60;3.23;;;;;;;;;;470023;28;1092;-70
2023/09/27 00:14:29;;;;;;;5.22;3.40;;;;;;;;;;471132;28;938;-70
2023/09/27 00:14:44;;;;;;;5.70;3.37;;;;;;;;;;465130;28;1053;-70
2023/09/27 00:15:02;;;;;;;4.40;3.40;;;;;;;;;;465540;28;1090;-70
2023/09/27 00:15:17;;;;;;;3.60;3.30;;;;;;;;;;466376;28;1179;-70
2023/09/27 00:15:33;;;;;;;3.60;3.30;;;;;;;;;;463536;28;1197;-70
2023/09/27 00:15:48;;;;;;;3.90;3.40;;;;;;;;;;475493;28;1099;-70
2023/09/27 00:16:03;;;;;;;5.10;3.40;;;;;;;;;;465838;28;1101;-70
2023/09/27 00:16:19;;;;;;;4.95;3.40;;;;;;;;;;469369;28;1107;-70
2023/09/27 00:16:35;;;;;;;4.00;3.30;;;;;;;;;;466051;28;2007;-70
2023/09/27 00:16:50;;;;;;;4.25;3.10;;;;;;;;;;465302;28;1092;-70
2023/09/27 00:17:06;;;;;;;4.22;3.15;;;;;;;;;;464725;28;1170;-70
2023/09/27 00:17:22;;;;;;;4.87;3.30;;;;;;;;;;470108;28;1325;-70
2023/09/27 00:17:38;;;;;;;4.78;3.15;;;;;;;;;;464434;28;1509;-70
2023/09/27 00:17:54;;;;;;;3.75;3.10;;;;;;;;;;469610;28;1196;-70
2023/09/27 00:18:10;;;;;;;3.90;3.40;;;;;;;;;;464549;28;1562;-70
2023/09/27 00:18:25;;;;;;;3.75;3.38;;;;;;;;;;466463;28;1063;-70
2023/09/27 00:18:41;;;;;;;3.72;3.25;;;;;;;;;;468965;28;1342;-70
2023/09/27 00:18:56;;;;;;;3.93;3.30;;;;;;;;;;465825;28;1185;-70
2023/09/27 00:19:12;;;;;;;4.25;3.28;;;;;;;;;;463559;28;1085;-71
2023/09/27 00:19:27;;;;;;;4.33;3.10;;;;;;;;;;470935;28;1398;-70
2023/09/27 00:19:43;;;;;;;4.13;3.10;;;;;;;;;;479609;28;930;-70
2023/09/27 00:19:58;;;;;;;3.60;3.10;;;;;;;;;;465271;28;1192;-70
2023/09/27 00:20:15;;;;;;;5.13;3.03;;;;;;;;;;465023;28;1169;-70
2023/09/27 00:20:32;;;;;;;4.63;2.90;;;;;;;;;;462294;28;1312;-70
2023/09/27 00:20:47;;;;;;;3.50;2.90;;;;;;;;;;461022;28;1163;-70
2023/09/27 00:21:03;;;;;;;3.37;2.83;;;;;;;;;;463642;28;1219;-70
2023/09/27 00:21:18;;;;;;;3.33;2.90;;;;;;;;;;466309;28;1222;-70
2023/09/27 00:21:34;;;;;;;3.67;2.93;;;;;;;;;;461091;28;1150;-70
2023/09/27 00:21:49;;;;;;;3.55;2.97;;;;;;;;;;461046;28;940;-70
2023/09/27 00:22:05;;;;;;;3.92;3.20;;;;;;;;;;461512;28;931;-70
2023/09/27 00:22:21;;;;;;;4.07;3.20;;;;;;;;;;464837;28;1257;-70
2023/09/27 00:22:37;;;;;;;3.83;2.90;;;;;;;;;;464363;28;1190;-70
2023/09/27 00:22:54;;;;;;;4.43;2.85;;;;;;;;;;464420;28;1136;-70
2023/09/27 00:23:10;;;;;;;3.97;2.90;;;;;;;;;;466699;28;1088;-70
2023/09/27 00:23:26;;;;;;;4.00;2.90;;;;;;;;;;470863;28;1328;-70
2023/09/27 00:23:41;;;;;;;4.70;2.90;;;;;;;;;;468853;28;1049;-70
2023/09/27 00:23:57;;;;;;;4.20;2.90;;;;;;;;;;463971;28;1144;-70
2023/09/27 00:24:12;;;;;;;3.53;2.90;;;;;;;;;;465654;28;1148;-70
2023/09/27 00:24:28;;;;;;;3.37;2.80;;;;;;;;;;469364;28;1172;-70
2023/09/27 00:24:43;;;;;;;3.60;2.70;;;;;;;;;;467030;28;1495;-70
2023/09/27 00:24:59;;;;;;;3.33;2.70;;;;;;;;;;466766;28;912;-70
2023/09/27 00:25:14;;;;;;;3.53;2.88;;;;;;;;;;469591;28;1180;-70
2023/09/27 00:25:30;;;;;;;3.42;2.88;;;;;;;;;;468433;28;1255;-70
2023/09/27 00:25:45;;;;;;;3.50;2.97;;;;;;;;;;467739;28;902;-70
2023/09/27 00:26:00;;;;;;;4.30;2.90;;;;;;;;;;469334;28;1118;-70
2023/09/27 00:26:16;;;;;;;4.18;2.80;;;;;;;;;;473441;28;1315;-70
2023/09/27 00:26:31;;;;;;;3.40;2.80;;;;;;;;;;470432;28;1150;-70
2023/09/27 00:26:47;;;;;;;3.22;2.90;;;;;;;;;;470035;28;883;-70
2023/09/27 00:27:04;;;;;;;3.30;2.97;;;;;;;;;;471190;28;1446;-70
2023/09/27 00:27:19;;;;;;;3.17;2.83;;;;;;;;;;472156;28;1410;-70
2023/09/27 00:27:38;;;;;;;3.37;2.80;;;;;;;;;;465803;28;1248;-70
2023/09/27 00:27:54;;;;;;;3.47;2.80;;;;;;;;;;466897;28;1334;-70
2023/09/27 00:28:09;;;;;;;3.17;2.80;;;;;;;;;;466118;28;1077;-70
2023/09/27 00:28:25;;;;;;;3.20;2.90;;;;;;;;;;468533;28;1199;-70
2023/09/27 00:28:40;;;;;;;3.42;2.80;;;;;;;;;;463733;28;1028;-70
2023/09/27 00:28:55;;;;;;;3.40;2.73;;;;;;;;;;464078;28;1113;-70
2023/09/27 00:29:11;;;;;;;4.57;2.93;;;;;;;;;;465248;28;1416;-70
2023/09/27 00:29:26;;;;;;;4.55;3.03;;;;;;;;;;470157;28;1131;-70
2023/09/27 00:29:41;;;;;;;3.53;3.00;;;;;;;;;;467060;28;1193;-70
2023/09/27 00:29:57;;;;;;;3.67;2.90;;;;;;;;;;471693;28;1198;-70
2023/09/27 00:30:14;;;;;;;3.15;2.75;;;;;;;;;;474013;28;1013;-70
2023/09/27 00:30:29;;;;;;;4.40;3.17;;;;;;;;;;471646;28;980;-70
2023/09/27 00:30:44;;;;;;;4.10;3.13;;;;;;;;;;470687;28;1238;-71
2023/09/27 00:31:00;;;;;;;3.23;2.90;;;;;;;;;;470827;28;1273;-70
2023/09/27 00:31:15;;;;;;;4.20;3.08;;;;;;;;;;467090;28;1116;-70
2023/09/27 00:31:30;;;;;;;4.23;2.93;;;;;;;;;;472618;28;1106;-70
2023/09/27 00:31:46;;;;;;;4.23;3.00;;;;;;;;;;480635;28;1100;-71
2023/09/27 00:32:01;;;;;;;4.07;3.13;;;;;;;;;;467024;28;990;-70
2023/09/27 00:32:16;;;;;;;4.73;3.20;;;;;;;;;;471257;28;1120;-71
2023/09/27 00:32:32;;;;;;;4.60;3.10;;;;;;;;;;465393;28;1081;-70
2023/09/27 00:32:47;;;;;;;3.50;2.95;;;;;;;;;;481039;28;1254;-70
2023/09/27 00:33:04;;;;;;;3.33;2.90;;;;;;;;;;468028;28;1251;-69
2023/09/27 00:33:19;;;;;;;3.80;3.08;;;;;;;;;;473232;28;1340;-69
2023/09/27 00:33:35;;;;;;;4.80;3.20;;;;;;;;;;468742;28;1339;-70
2023/09/27 00:33:50;;;;;;;4.93;3.22;;;;;;;;;;466227;28;1184;-70
2023/09/27 00:34:05;;;;;;;4.60;3.30;;;;;;;;;;466460;28;1109;-70
2023/09/27 00:34:21;;;;;;;4.50;3.30;;;;;;;;;;470239;28;1231;-70
2023/09/27 00:34:36;;;;;;;4.22;3.30;;;;;;;;;;465901;28;905;-70
2023/09/27 00:34:51;;;;;;;4.20;3.30;;;;;;;;;;469676;28;1235;-69
2023/09/27 00:35:12;;;;;;;5.00;3.30;;;;;;;;;;472792;28;1194;-69
2023/09/27 00:35:27;;;;;;;4.22;3.10;;;;;;;;;;469635;28;1043;-70
2023/09/27 00:35:50;;;;;;;3.30;3.00;;;;;;;;;;467050;28;1100;-70
2023/09/27 00:36:05;;;;;;;3.60;3.08;;;;;;;;;;469553;28;1456;-69
2023/09/27 00:36:22;;;;;;;5.17;3.30;;;;;;;;;;475843;28;943;-70
2023/09/27 00:36:37;;;;;;;5.25;3.40;;;;;;;;;;468172;28;1977;-70
2023/09/27 00:36:52;;;;;;;4.00;3.40;;;;;;;;;;465869;28;1135;-70
2023/09/27 00:37:08;;;;;;;4.53;3.30;;;;;;;;;;468597;28;1481;-70
2023/09/27 00:37:24;;;;;;;4.10;3.20;;;;;;;;;;473849;28;1121;-70
2023/09/27 00:37:39;;;;;;;3.45;3.15;;;;;;;;;;466321;28;1592;-69
2023/09/27 00:37:54;;;;;;;3.97;3.23;;;;;;;;;;466291;28;1129;-69
2023/09/27 00:38:10;;;;;;;5.23;3.30;;;;;;;;;;466013;28;1137;-70
2023/09/27 00:38:25;;;;;;;5.20;3.08;;;;;;;;;;471629;28;1016;-69
2023/09/27 00:38:41;;;;;;;4.23;3.07;;;;;;;;;;466341;28;1086;-69
2023/09/27 00:38:57;;;;;;;3.88;3.22;;;;;;;;;;466269;28;1080;-69
2023/09/27 00:39:12;;;;;;;4.73;3.40;;;;;;;;;;466864;28;1004;-70
2023/09/27 00:39:28;;;;;;;7.07;3.40;;;;;;;;;;473147;28;1011;-69
2023/09/27 00:39:43;;;;;;;6.13;3.40;;;;;;;;;;464165;28;1242;-70
2023/09/27 00:39:58;;;;;;;5.18;3.45;;;;;;;;;;465881;28;991;-69
2023/09/27 00:40:14;;;;;;;5.07;3.33;;;;;;;;;;467498;28;895;-70
2023/09/27 00:40:31;;;;;;;4.05;3.08;;;;;;;;;;469854;28;1049;-70
2023/09/27 00:40:47;;;;;;;4.22;3.20;;;;;;;;;;468367;28;1015;-70
2023/09/27 00:41:04;;;;;;;4.18;3.40;;;;;;;;;;469416;28;1341;-69
2023/09/27 00:41:20;;;;;;;4.28;3.30;;;;;;;;;;473303;28;1563;-70
2023/09/27 00:41:35;;;;;;;5.65;3.30;;;;;;;;;;467069;28;1041;-70
2023/09/27 00:41:51;;;;;;;7.03;3.57;;;;;;;;;;466226;28;1365;-69
2023/09/27 00:42:06;;;;;;;5.90;3.60;;;;;;;;;;464169;28;1396;-70
2023/09/27 00:42:23;;;;;;;4.72;3.42;;;;;;;;;;470743;28;1185;-70
2023/09/27 00:42:39;;;;;;;3.88;3.30;;;;;;;;;;466372;28;902;-69
2023/09/27 00:42:54;;;;;;;3.58;3.20;;;;;;;;;;466002;28;1168;-69
2023/09/27 00:43:10;;;;;;;4.13;3.13;;;;;;;;;;469028;28;1141;-69
2023/09/27 00:43:26;;;;;;;4.05;3.30;;;;;;;;;;473653;28;1314;-69
2023/09/27 00:43:41;;;;;;;3.83;3.30;;;;;;;;;;465121;28;1081;-69
2023/09/27 00:43:58;;;;;;;3.80;3.23;;;;;;;;;;465393;28;947;-70
2023/09/27 00:44:13;;;;;;;3.80;3.30;;;;;;;;;;465058;28;1039;-70
2023/09/27 00:44:29;;;;;;;4.47;3.50;;;;;;;;;;472168;29;1326;-70
2023/09/27 00:44:44;;;;;;;4.83;3.60;;;;;;;;;;475443;28;1222;-70
2023/09/27 00:45:00;;;;;;;4.20;3.40;;;;;;;;;;478634;28;1164;-70
2023/09/27 00:45:20;;;;;;;4.32;3.20;;;;;;;;;;480831;28;1237;-70
2023/09/27 00:45:35;;;;;;;6.22;3.33;;;;;;;;;;481100;28;1119;-70
2023/09/27 00:45:53;;;;;;;7.03;3.50;;;;;;;;;;479484;28;1192;-70
2023/09/27 00:46:12;;;;;;;3.80;3.40;;;;;;;;;;481677;28;1219;-70
2023/09/27 00:46:27;;;;;;;4.10;3.55;;;;;;;;;;481775;28;1175;-70
2023/09/27 00:46:43;;;;;;;3.90;3.50;;;;;;;;;;480303;28;1560;-70
2023/09/27 00:46:59;;;;;;;3.70;3.30;;;;;;;;;;478777;28;1422;-70
2023/09/27 00:47:14;;;;;;;4.28;3.28;;;;;;;;;;480386;28;1057;-70
2023/09/27 00:47:32;;;;;;;5.77;3.60;;;;;;;;;;481244;28;1211;-70
2023/09/27 00:47:49;;;;;;;5.88;3.70;;;;;;;;;;480856;28;1130;-70
2023/09/27 00:48:05;;;;;;;6.15;3.63;;;;;;;;;;480091;28;1055;-70
2023/09/27 00:48:20;;;;;;;5.15;3.53;;;;;;;;;;479290;28;1229;-70
2023/09/27 00:48:36;;;;;;;3.60;3.30;;;;;;;;;;481384;28;1057;-70
2023/09/27 00:48:52;;;;;;;3.70;3.40;;;;;;;;;;483322;28;1318;-70
2023/09/27 00:49:08;;;;;;;3.75;3.40;;;;;;;;;;482924;28;1081;-70
2023/09/27 00:49:24;;;;;;;4.22;3.50;;;;;;;;;;484917;28;1022;-70
2023/09/27 00:49:40;;;;;;;4.82;3.65;;;;;;;;;;486995;28;1170;-70
2023/09/27 00:49:56;;;;;;;4.47;3.58;;;;;;;;;;487277;28;1239;-70
2023/09/27 00:50:11;;;;;;;4.93;3.60;;;;;;;;;;486789;28;1046;-70
2023/09/27 00:50:26;;;;;;;5.07;3.53;;;;;;;;;;483193;28;1326;-70
2023/09/27 00:50:42;;;;;;;5.43;3.40;;;;;;;;;;482908;28;980;-70
2023/09/27 00:50:58;;;;;;;5.88;3.47;;;;;;;;;;482200;28;1293;-70
2023/09/27 00:51:14;;;;;;;4.95;3.60;;;;;;;;;;483432;28;989;-70
2023/09/27 00:51:30;;;;;;;4.68;3.50;;;;;;;;;;482827;28;1261;-70
2023/09/27 00:51:45;;;;;;;5.47;3.70;;;;;;;;;;482069;28;1272;-70
2023/09/27 00:52:01;;;;;;;5.07;3.67;;;;;;;;;;482996;28;1240;-70
2023/09/27 00:52:17;;;;;;;4.30;3.60;;;;;;;;;;483442;28;1021;-70
2023/09/27 00:52:32;;;;;;;4.53;3.70;;;;;;;;;;482969;28;1006;-70
2023/09/27 00:52:49;;;;;;;3.97;3.55;;;;;;;;;;483406;28;1316;-70
2023/09/27 00:53:05;;;;;;;3.90;3.38;;;;;;;;;;484704;28;1666;-70
2023/09/27 00:53:23;;;;;;;3.93;3.37;;;;;;;;;;483522;28;1061;-70
2023/09/27 00:53:40;;;;;;;3.95;3.53;;;;;;;;;;482619;28;1057;-70
2023/09/27 00:53:56;;;;;;;4.20;3.80;;;;;;;;;;482612;28;1277;-70
2023/09/27 00:54:12;;;;;;;4.20;3.70;;;;;;;;;;484645;28;1074;-70
2023/09/27 00:54:29;;;;;;;4.65;3.58;;;;;;;;;;483444;28;1050;-70
2023/09/27 00:54:45;;;;;;;5.07;3.78;;;;;;;;;;484492;28;1129;-70
2023/09/27 00:55:00;;;;;;;5.25;3.70;;;;;;;;;;483088;28;1177;-70
2023/09/27 00:55:19;;;;;;;4.73;3.60;;;;;;;;;;483951;28;1209;-70
2023/09/27 00:55:35;;;;;;;4.20;3.58;;;;;;;;;;483255;28;1128;-70
2023/09/27 00:55:51;;;;;;;3.95;3.53;;;;;;;;;;484006;28;1091;-70
2023/09/27 00:56:09;;;;;;;4.88;3.70;;;;;;;;;;483982;28;1186;-70
2023/09/27 00:56:25;;;;;;;4.47;3.58;;;;;;;;;;484147;28;1328;-70
2023/09/27 00:56:41;;;;;;;4.65;3.60;;;;;;;;;;482616;28;1948;-70
2023/09/27 00:56:56;;;;;;;5.03;3.80;;;;;;;;;;481581;28;1280;-70
2023/09/27 00:57:12;;;;;;;4.67;3.80;;;;;;;;;;479893;28;1295;-70
2023/09/27 00:57:28;;;;;;;4.10;3.60;;;;;;;;;;479331;28;1323;-70
2023/09/27 00:57:45;;;;;;;4.00;3.60;;;;;;;;;;479946;28;1032;-70
2023/09/27 00:58:01;;;;;;;4.90;3.60;;;;;;;;;;479750;28;1263;-70
2023/09/27 00:58:20;;;;;;;4.90;3.50;;;;;;;;;;478965;28;1275;-70
2023/09/27 00:58:36;;;;;;;4.65;3.30;;;;;;;;;;480122;28;1154;-70
2023/09/27 00:58:53;;;;;;;4.22;3.63;;;;;;;;;;481689;28;1157;-70
2023/09/27 00:59:09;;;;;;;4.93;3.85;;;;;;;;;;481716;28;1260;-70
2023/09/27 00:59:25;;;;;;;5.57;3.88;;;;;;;;;;481894;28;1112;-70
2023/09/27 00:59:41;;;;;;;5.03;3.78;;;;;;;;;;482127;28;1155;-70
2023/09/27 00:59:58;;;;;;;4.80;3.78;;;;;;;;;;482144;28;1014;-70
2023/09/27 01:00:14;;;;;;;4.57;3.80;;;;;;;;;;480568;28;1109;-70
2023/09/27 01:00:30;;;;;;;4.30;3.65;;;;;;;;;;480695;28;1126;-70
2023/09/27 01:00:49;;;;;;;4.72;3.50;;;;;;;;;;482474;28;1197;-70
2023/09/27 01:01:04;;;;;;;4.50;3.53;;;;;;;;;;484675;28;1075;-70
2023/09/27 01:01:20;;;;;;;4.43;3.70;;;;;;;;;;483315;28;1398;-70
2023/09/27 01:01:37;;;;;;;4.55;3.65;;;;;;;;;;484299;28;1066;-70
2023/09/27 01:01:53;;;;;;;4.47;3.63;;;;;;;;;;482083;28;1248;-70
2023/09/27 01:02:09;;;;;;;4.10;3.47;;;;;;;;;;480786;28;1501;-70
2023/09/27 01:02:24;;;;;;;3.97;3.58;;;;;;;;;;481720;28;1197;-70
2023/09/27 01:02:41;;;;;;;4.00;3.60;;;;;;;;;;481018;28;1951;-70
2023/09/27 01:02:56;;;;;;;4.25;3.50;;;;;;;;;;481487;28;1190;-70
2023/09/27 01:03:13;;;;;;;4.10;3.65;;;;;;;;;;482813;28;1277;-70
2023/09/27 01:03:29;;;;;;;4.00;3.60;;;;;;;;;;482132;28;1212;-70
2023/09/27 01:03:45;;;;;;;3.80;3.40;;;;;;;;;;482783;28;1210;-70
2023/09/27 01:04:01;;;;;;;3.80;3.40;;;;;;;;;;483063;28;941;-70
2023/09/27 01:04:16;;;;;;;4.68;3.67;;;;;;;;;;480751;28;1393;-70
2023/09/27 01:04:32;;;;;;;5.15;3.67;;;;;;;;;;481608;28;1054;-70
2023/09/27 01:04:48;;;;;;;4.20;3.60;;;;;;;;;;482712;28;1085;-70
2023/09/27 01:05:08;;;;;;;4.22;3.70;;;;;;;;;;482647;28;1278;-70
2023/09/27 01:05:23;;;;;;;4.63;3.58;;;;;;;;;;481857;28;1189;-70
2023/09/27 01:05:40;;;;;;;4.95;3.58;;;;;;;;;;481632;28;1145;-70
2023/09/27 01:05:55;;;;;;;4.68;3.63;;;;;;;;;;481520;28;1530;-70
2023/09/27 01:06:11;;;;;;;4.65;3.80;;;;;;;;;;481650;28;1106;-71
2023/09/27 01:06:27;;;;;;;4.63;3.70;;;;;;;;;;481469;28;1387;-70
2023/09/27 01:06:43;;;;;;;4.80;3.77;;;;;;;;;;482317;28;1054;-70
2023/09/27 01:06:59;;;;;;;4.78;3.83;;;;;;;;;;481958;28;1093;-70
2023/09/27 01:07:15;;;;;;;5.13;3.78;;;;;;;;;;480586;28;1168;-70
2023/09/27 01:07:30;;;;;;;5.00;3.63;;;;;;;;;;481150;28;1686;-70
2023/09/27 01:07:46;;;;;;;3.90;3.47;;;;;;;;;;482190;28;1179;-70
2023/09/27 01:08:02;;;;;;;4.07;3.67;;;;;;;;;;482648;28;1083;-70
2023/09/27 01:08:17;;;;;;;4.30;3.88;;;;;;;;;;483137;28;1344;-70
2023/09/27 01:08:33;;;;;;;4.70;3.90;;;;;;;;;;481316;28;1565;-70
2023/09/27 01:08:48;;;;;;;4.60;3.83;;;;;;;;;;482350;28;1110;-71
2023/09/27 01:09:04;;;;;;;4.47;3.70;;;;;;;;;;482851;28;974;-70
2023/09/27 01:09:19;;;;;;;5.00;3.57;;;;;;;;;;481474;28;1323;-70
2023/09/27 01:09:37;;;;;;;3.93;3.40;;;;;;;;;;484638;28;1354;-70
2023/09/27 01:09:52;;;;;;;4.15;3.67;;;;;;;;;;484786;28;888;-70
2023/09/27 01:10:09;;;;;;;5.57;3.90;;;;;;;;;;483767;28;1196;-70
2023/09/27 01:10:24;;;;;;;5.95;3.72;;;;;;;;;;485004;28;1037;-70
2023/09/27 01:10:40;;;;;;;4.67;3.67;;;;;;;;;;486130;28;1100;-71
2023/09/27 01:10:55;;;;;;;4.40;3.78;;;;;;;;;;487097;28;1219;-70
2023/09/27 01:11:11;;;;;;;4.65;3.70;;;;;;;;;;487071;28;1139;-70
2023/09/27 01:11:29;;;;;;;4.00;3.60;;;;;;;;;;483331;28;1225;-70
2023/09/27 01:11:48;;;;;;;4.60;3.70;;;;;;;;;;483844;28;1128;-70
2023/09/27 01:12:04;;;;;;;6.03;3.60;;;;;;;;;;484438;28;1613;-70
2023/09/27 01:12:20;;;;;;;5.50;3.63;;;;;;;;;;481601;28;1256;-70
2023/09/27 01:12:37;;;;;;;5.00;3.50;;;;;;;;;;482003;28;1144;-70
2023/09/27 01:12:52;;;;;;;4.63;3.50;;;;;;;;;;479590;28;1139;-70
2023/09/27 01:13:08;;;;;;;4.47;3.65;;;;;;;;;;478975;28;1186;-70
2023/09/27 01:13:24;;;;;;;4.85;3.65;;;;;;;;;;479126;28;1075;-71
2023/09/27 01:13:39;;;;;;;4.83;3.60;;;;;;;;;;478850;28;1401;-70
2023/09/27 01:13:55;;;;;;;4.43;3.58;;;;;;;;;;479478;28;1027;-71
2023/09/27 01:14:10;;;;;;;3.73;3.40;;;;;;;;;;479481;28;1438;-71
2023/09/27 01:14:26;;;;;;;3.90;3.50;;;;;;;;;;479922;28;1156;-70
2023/09/27 01:14:42;;;;;;;5.40;3.77;;;;;;;;;;480346;28;929;-70
2023/09/27 01:14:57;;;;;;;6.05;3.63;;;;;;;;;;482303;28;1114;-70
2023/09/27 01:15:13;;;;;;;6.30;3.53;;;;;;;;;;481076;28;1128;-70
2023/09/27 01:15:29;;;;;;;5.67;3.70;;;;;;;;;;481350;28;1380;-70
2023/09/27 01:15:44;;;;;;;4.20;3.80;;;;;;;;;;483254;28;993;-70
2023/09/27 01:16:00;;;;;;;4.10;3.70;;;;;;;;;;481535;28;1114;-70
2023/09/27 01:16:15;;;;;;;5.80;3.60;;;;;;;;;;483528;28;1209;-71
2023/09/27 01:16:32;;;;;;;6.13;3.63;;;;;;;;;;482192;28;1945;-70
2023/09/27 01:16:47;;;;;;;4.63;3.88;;;;;;;;;;482330;28;1222;-70
2023/09/27 01:17:10;;;;;;;4.20;3.80;;;;;;;;;;483008;28;1041;-70
2023/09/27 01:17:25;;;;;;;4.45;3.80;;;;;;;;;;483908;28;1465;-70
2023/09/27 01:17:54;;;;;;;5.10;3.80;;;;;;;;;;483059;28;1208;-70
2023/09/27 01:18:11;;;;;;;5.00;3.60;;;;;;;;;;481894;28;2338;-69
2023/09/27 01:18:27;;;;;;;4.55;3.70;;;;;;;;;;482168;28;1104;-70
2023/09/27 01:18:42;;;;;;;4.53;3.90;;;;;;;;;;482324;28;1202;-70
2023/09/27 01:19:02;;;;;;;4.10;3.70;;;;;;;;;;483194;28;962;-70
2023/09/27 01:19:17;;;;;;;3.75;3.40;;;;;;;;;;482364;28;1167;-70
2023/09/27 01:19:34;;;;;;;3.90;3.50;;;;;;;;;;482162;28;1101;-70
2023/09/27 01:19:49;;;;;;;4.07;3.60;;;;;;;;;;483021;28;1141;-70
2023/09/27 01:20:12;;;;;;;4.72;3.80;;;;;;;;;;485208;28;994;-70
2023/09/27 01:20:29;;;;;;;5.93;3.95;;;;;;;;;;486742;28;1002;-70
2023/09/27 01:20:45;;;;;;;6.28;3.90;;;;;;;;;;483550;28;1275;-70
2023/09/27 01:21:01;;;;;;;4.37;3.60;;;;;;;;;;483718;28;1069;-70
2023/09/27 01:21:19;;;;;;;4.32;3.63;;;;;;;;;;484352;28;1114;-70
2023/09/27 01:21:34;;;;;;;5.22;3.70;;;;;;;;;;482082;28;1306;-70
2023/09/27 01:21:49;;;;;;;4.33;3.63;;;;;;;;;;480526;28;1317;-70
2023/09/27 01:22:05;;;;;;;4.88;3.60;;;;;;;;;;480757;28;1149;-70
2023/09/27 01:22:20;;;;;;;4.80;3.77;;;;;;;;;;479916;28;1239;-70
2023/09/27 01:22:36;;;;;;;4.35;3.80;;;;;;;;;;480822;28;1137;-70
2023/09/27 01:22:55;;;;;;;4.00;3.57;;;;;;;;;;481032;28;1218;-70
2023/09/27 01:23:10;;;;;;;5.22;3.50;;;;;;;;;;480249;28;1205;-70
2023/09/27 01:23:26;;;;;;;5.53;3.67;;;;;;;;;;482392;28;1450;-70
2023/09/27 01:23:41;;;;;;;4.18;3.78;;;;;;;;;;483397;28;1431;-75
2023/09/27 01:23:57;;;;;;;4.17;3.60;;;;;;;;;;483399;28;1048;-75
2023/09/27 01:24:13;;;;;;;4.15;3.70;;;;;;;;;;481851;28;1091;-75
2023/09/27 01:24:30;;;;;;;4.78;3.80;;;;;;;;;;482147;28;1044;-75
2023/09/27 01:24:46;;;;;;;5.65;3.80;;;;;;;;;;482906;28;1443;-75
2023/09/27 01:25:06;;;;;;;5.55;3.70;;;;;;;;;;484518;28;1143;-74
2023/09/27 01:25:26;;;;;;;5.00;3.90;;;;;;;;;;484273;28;1049;-77
2023/09/27 01:25:41;;;;;;;4.22;3.67;;;;;;;;;;482432;28;1342;-74
2023/09/27 01:25:59;;;;;;;4.67;3.67;;;;;;;;;;482843;28;1073;-75
2023/09/27 01:26:16;;;;;;;5.03;4.00;;;;;;;;;;482780;28;1339;-75
2023/09/27 01:26:34;;;;;;;4.20;3.67;;;;;;;;;;482754;28;989;-75
2023/09/27 01:26:49;;;;;;;5.03;3.63;;;;;;;;;;484978;28;1124;-75
2023/09/27 01:27:06;;;;;;;5.50;3.90;;;;;;;;;;483312;28;1124;-74
2023/09/27 01:27:22;;;;;;;4.85;3.72;;;;;;;;;;482854;28;1239;-74
2023/09/27 01:27:37;;;;;;;4.10;3.60;;;;;;;;;;485704;28;1520;-75
2023/09/27 01:27:53;;;;;;;4.25;3.85;;;;;;;;;;485451;28;1108;-75
2023/09/27 01:28:10;;;;;;;4.30;3.67;;;;;;;;;;484489;28;1447;-75
2023/09/27 01:28:26;;;;;;;4.35;3.42;;;;;;;;;;485334;28;1097;-75
2023/09/27 01:28:44;;;;;;;4.07;3.50;;;;;;;;;;484443;28;1080;-75
2023/09/27 01:28:59;;;;;;;4.13;3.72;;;;;;;;;;483242;28;1238;-75
2023/09/27 01:29:15;;;;;;;4.65;3.90;;;;;;;;;;483057;28;1218;-74
2023/09/27 01:29:30;;;;;;;4.73;3.80;;;;;;;;;;483245;28;1262;-75
2023/09/27 01:29:46;;;;;;;5.10;3.83;;;;;;;;;;482517;28;1135;-75
2023/09/27 01:30:05;;;;;;;4.75;3.70;;;;;;;;;;481298;28;1109;-74
2023/09/27 01:30:21;;;;;;;4.07;3.58;;;;;;;;;;481825;28;1215;-75
2023/09/27 01:30:37;;;;;;;4.85;3.72;;;;;;;;;;482176;28;952;-75
2023/09/27 01:30:53;;;;;;;4.90;3.67;;;;;;;;;;483754;28;1293;-75
2023/09/27 01:31:08;;;;;;;4.90;3.85;;;;;;;;;;482376;28;1139;-75
2023/09/27 01:31:23;;;;;;;5.20;3.80;;;;;;;;;;483283;28;1117;-75
2023/09/27 01:31:39;;;;;;;4.43;3.70;;;;;;;;;;483542;28;1064;-75
2023/09/27 01:31:54;;;;;;;4.22;3.78;;;;;;;;;;483720;28;1488;-75
2023/09/27 01:32:10;;;;;;;4.27;3.80;;;;;;;;;;483222;28;1090;-74
2023/09/27 01:32:25;;;;;;;4.45;3.83;;;;;;;;;;481227;28;1233;-75
2023/09/27 01:32:41;;;;;;;5.23;3.70;;;;;;;;;;481519;28;1225;-74
2023/09/27 01:32:57;;;;;;;4.80;3.60;;;;;;;;;;480646;28;1129;-75
2023/09/27 01:33:13;;;;;;;4.85;3.80;;;;;;;;;;481331;28;1073;-74
2023/09/27 01:33:29;;;;;;;4.80;3.80;;;;;;;;;;480657;28;1136;-75
2023/09/27 01:33:44;;;;;;;4.20;3.80;;;;;;;;;;481556;28;1155;-75
2023/09/27 01:33:59;;;;;;;4.97;3.77;;;;;;;;;;481800;28;1122;-75
2023/09/27 01:34:15;;;;;;;5.90;3.80;;;;;;;;;;482456;28;1140;-74
2023/09/27 01:34:31;;;;;;;5.47;3.65;;;;;;;;;;482068;28;1382;-74
2023/09/27 01:34:46;;;;;;;4.93;3.70;;;;;;;;;;482947;28;1357;-75
2023/09/27 01:35:03;;;;;;;4.70;3.77;;;;;;;;;;481132;28;1227;-74
2023/09/27 01:35:18;;;;;;;5.03;3.90;;;;;;;;;;481589;28;1048;-75
2023/09/27 01:35:38;;;;;;;4.67;3.77;;;;;;;;;;480159;28;1162;-75
2023/09/27 01:35:56;;;;;;;5.28;3.83;;;;;;;;;;481320;28;1282;-74
2023/09/27 01:36:11;;;;;;;4.93;3.90;;;;;;;;;;481434;28;1125;-75
2023/09/27 01:36:27;;;;;;;4.40;3.70;;;;;;;;;;480360;28;1069;-75
2023/09/27 01:36:42;;;;;;;5.30;3.72;;;;;;;;;;482776;28;1997;-75
2023/09/27 01:36:58;;;;;;;4.87;3.77;;;;;;;;;;479573;28;1257;-75
2023/09/27 01:37:13;;;;;;;4.72;3.80;;;;;;;;;;479959;28;1272;-74
2023/09/27 01:37:32;;;;;;;4.63;3.80;;;;;;;;;;480955;28;1141;-74
2023/09/27 01:37:48;;;;;;;4.82;3.78;;;;;;;;;;481424;28;1078;-75
2023/09/27 01:38:04;;;;;;;4.32;3.60;;;;;;;;;;480264;28;1239;-75
2023/09/27 01:38:19;;;;;;;4.65;3.80;;;;;;;;;;478916;28;1398;-74
2023/09/27 01:38:35;;;;;;;4.50;3.53;;;;;;;;;;480282;28;1226;-75
2023/09/27 01:38:50;;;;;;;3.80;3.40;;;;;;;;;;482608;28;1321;-74
2023/09/27 01:39:07;;;;;;;4.00;3.60;;;;;;;;;;483858;28;1074;-74
2023/09/27 01:39:24;;;;;;;4.10;3.63;;;;;;;;;;481378;28;1464;-75